createdAt,value
2023-02-11T00:00:42.733Z,2.50
2023-02-11T00:03:10.008Z,2.50
2023-02-11T00:05:37.170Z,2.50
2023-02-11T00:08:04.118Z,2.50
2023-02-11T00:10:30.911Z,2.50
2023-02-11T00:12:57.698Z,2.50
2023-02-11T00:15:24.552Z,2.50
2023-02-11T00:17:51.389Z,2.50
2023-02-11T00:20:18.331Z,2.50
2023-02-11T00:22:45.357Z,2.50
2023-02-11T00:25:12.167Z,2.50
2023-02-11T00:27:39.043Z,2.50
2023-02-11T00:30:06.518Z,2.50
2023-02-11T00:32:33.413Z,2.50
2023-02-11T00:35:00.241Z,2.50
2023-02-11T00:37:27.196Z,2.50
2023-02-11T00:39:54.102Z,2.50
2023-02-11T00:42:21.090Z,2.50
2023-02-11T00:44:47.881Z,2.50
2023-02-11T00:47:14.694Z,2.50
2023-02-11T00:49:41.501Z,2.50
2023-02-11T00:52:08.353Z,2.50
2023-02-11T00:54:35.444Z,2.50
2023-02-11T00:57:02.256Z,2.50
2023-02-11T00:59:29.166Z,2.50
2023-02-11T01:01:56.308Z,2.40
2023-02-11T01:04:23.222Z,2.40
2023-02-11T01:06:50.177Z,2.50
2023-02-11T01:09:17.148Z,2.40
2023-02-11T01:11:44.316Z,2.40
2023-02-11T01:14:11.271Z,2.40
2023-02-11T01:16:38.201Z,2.40
2023-02-11T01:19:05.043Z,2.40
2023-02-11T01:21:31.877Z,2.40
2023-02-11T01:23:59.075Z,2.30
2023-02-11T01:26:26.108Z,2.30
2023-02-11T01:28:52.952Z,2.30
2023-02-11T01:31:19.850Z,2.30
2023-02-11T01:33:46.724Z,2.30
2023-02-11T01:36:13.600Z,2.30
2023-02-11T01:38:41.105Z,2.30
2023-02-11T01:41:11.944Z,2.30
2023-02-11T01:43:45.628Z,2.30
2023-02-11T01:46:38.739Z,2.30
2023-02-11T01:49:14.730Z,2.30
2023-02-11T01:51:53.524Z,2.30
2023-02-11T01:54:44.891Z,2.20
2023-02-11T01:57:22.373Z,2.30
2023-02-11T02:00:10.976Z,2.20
2023-02-11T02:02:50.718Z,2.20
2023-02-11T02:05:49.981Z,2.20
2023-02-11T02:08:43.834Z,2.30
2023-02-11T02:11:11.484Z,2.30
2023-02-11T02:13:38.923Z,2.20
2023-02-11T02:16:16.704Z,2.20
2023-02-11T02:19:41.682Z,2.20
2023-02-11T02:22:59.946Z,2.20
2023-02-11T02:26:23.216Z,2.20
2023-02-11T02:29:01.916Z,2.20
2023-02-11T02:32:12.685Z,2.20
2023-02-11T02:35:11.700Z,2.20
2023-02-11T02:37:42.179Z,2.20
2023-02-11T02:40:23.681Z,2.20
2023-02-11T02:42:52.619Z,2.10
2023-02-11T02:45:20.437Z,2.10
2023-02-11T02:47:47.311Z,2.10
2023-02-11T02:50:19.562Z,2.10
2023-02-11T02:53:19.485Z,2.10
2023-02-11T02:56:24.503Z,2.00
2023-02-11T02:59:55.016Z,2.00
2023-02-11T03:02:41.234Z,2.00
2023-02-11T03:05:25.570Z,2.00
2023-02-11T03:08:01.352Z,2.00
2023-02-11T03:10:32.876Z,1.90
2023-02-11T03:13:02.822Z,1.90
2023-02-11T03:15:37.566Z,1.90
2023-02-11T03:18:09.682Z,1.90
2023-02-11T03:20:40.551Z,1.80
2023-02-11T03:23:21.168Z,1.80
2023-02-11T03:25:57.736Z,1.80
2023-02-11T03:28:32.593Z,1.80
2023-02-11T03:31:25.510Z,1.80
2023-02-11T03:34:08.648Z,1.80
2023-02-11T03:36:47.243Z,1.70
2023-02-11T03:39:25.340Z,1.70
2023-02-11T03:41:55.519Z,1.70
2023-02-11T03:44:26.440Z,1.70
2023-02-11T03:46:55.913Z,1.70
2023-02-11T03:49:26.807Z,1.70
2023-02-11T03:51:57.688Z,1.70
2023-02-11T03:54:30.520Z,1.70
2023-02-11T03:57:01.098Z,1.70
2023-02-11T03:59:29.007Z,1.80
2023-02-11T04:01:59.643Z,1.80
2023-02-11T04:04:26.409Z,1.80
2023-02-11T04:06:53.276Z,1.80
2023-02-11T04:09:20.148Z,1.80
2023-02-11T04:11:46.981Z,1.80
2023-02-11T04:14:13.780Z,1.90
2023-02-11T04:16:40.680Z,1.80
2023-02-11T04:19:07.942Z,1.80
2023-02-11T04:21:34.797Z,1.90
2023-02-11T04:24:01.611Z,1.90
2023-02-11T04:26:28.432Z,1.90
2023-02-11T04:28:55.246Z,1.90
2023-02-11T04:31:25.121Z,1.90
2023-02-11T04:33:52.056Z,1.90
2023-02-11T04:36:18.888Z,1.90
2023-02-11T04:38:45.699Z,2.00
2023-02-11T04:41:12.589Z,2.00
2023-02-11T04:43:39.546Z,2.00
2023-02-11T04:46:06.466Z,2.00
2023-02-11T04:48:34.848Z,2.00
2023-02-11T04:51:02.447Z,2.00
2023-02-11T04:53:29.264Z,2.00
2023-02-11T04:55:56.088Z,2.00
2023-02-11T04:58:22.907Z,2.10
2023-02-11T05:00:50.173Z,2.00
2023-02-11T05:03:17.441Z,2.00
2023-02-11T05:05:44.434Z,2.10
2023-02-11T05:08:12.838Z,2.10
2023-02-11T05:10:39.910Z,2.10
2023-02-11T05:13:06.749Z,2.00
2023-02-11T05:15:33.549Z,2.00
2023-02-11T05:18:00.356Z,2.00
2023-02-11T05:20:27.161Z,2.00
2023-02-11T05:22:54.029Z,2.00
2023-02-11T05:25:21.112Z,2.00
2023-02-11T05:27:47.958Z,2.00
2023-02-11T05:30:15.111Z,2.00
2023-02-11T05:32:42.055Z,2.00
2023-02-11T05:35:09.499Z,2.00
2023-02-11T05:37:36.642Z,2.10
2023-02-11T05:40:04.208Z,2.10
2023-02-11T05:42:31.103Z,2.10
2023-02-11T05:44:57.949Z,2.20
2023-02-11T05:47:25.141Z,2.20
2023-02-11T05:49:53.581Z,2.30
2023-02-11T05:52:22.645Z,2.30
2023-02-11T05:54:49.664Z,2.30
2023-02-11T05:57:17.025Z,2.30
2023-02-11T05:59:43.949Z,2.30
2023-02-11T06:02:11.352Z,2.30
2023-02-11T06:04:38.657Z,2.30
2023-02-11T06:07:05.541Z,2.30
2023-02-11T06:09:32.408Z,2.40
2023-02-11T06:11:59.264Z,2.40
2023-02-11T06:14:26.076Z,2.40
2023-02-11T06:16:52.887Z,2.40
2023-02-11T06:19:19.664Z,2.40
2023-02-11T06:21:46.575Z,2.50
2023-02-11T06:24:13.415Z,2.50
2023-02-11T06:26:40.203Z,2.50
2023-02-11T06:29:07.146Z,2.60
2023-02-11T06:31:34.172Z,2.60
2023-02-11T06:34:01.327Z,2.70
2023-02-11T06:36:28.220Z,2.70
2023-02-11T06:38:55.622Z,2.70
2023-02-11T06:41:23.066Z,2.70
2023-02-11T06:43:50.102Z,2.80
2023-02-11T06:46:16.952Z,2.80
2023-02-11T06:48:44.973Z,2.80
2023-02-11T06:51:14.267Z,2.80
2023-02-11T06:53:44.907Z,2.90
2023-02-11T06:56:19.993Z,2.90
2023-02-11T06:58:47.808Z,3.00
2023-02-11T07:01:16.710Z,3.00
2023-02-11T07:03:45.763Z,3.00
2023-02-11T07:06:17.263Z,3.10
2023-02-11T07:08:45.912Z,3.10
2023-02-11T07:11:16.987Z,3.20
2023-02-11T07:13:44.106Z,3.20
2023-02-11T07:16:16.717Z,3.30
2023-02-11T07:18:44.517Z,3.40
2023-02-11T07:21:14.900Z,3.50
2023-02-11T07:23:42.566Z,3.50
2023-02-11T07:26:14.369Z,3.60
2023-02-11T07:28:42.284Z,3.70
2023-02-11T07:31:28.129Z,3.70
2023-02-11T07:33:59.949Z,3.70
2023-02-11T07:36:29.941Z,3.80
2023-02-11T07:38:56.936Z,3.80
2023-02-11T07:41:25.571Z,3.90
2023-02-11T07:43:53.041Z,3.90
2023-02-11T07:46:24.525Z,3.90
2023-02-11T07:48:52.015Z,4.00
2023-02-11T07:51:26.391Z,4.00
2023-02-11T07:53:55.327Z,4.10
2023-02-11T07:56:23.496Z,4.10
2023-02-11T07:58:51.768Z,4.20
2023-02-11T08:01:27.156Z,4.30
2023-02-11T08:03:56.319Z,4.30
2023-02-11T08:06:26.071Z,4.50
2023-02-11T08:08:53.228Z,4.50
2023-02-11T08:11:26.582Z,4.50
2023-02-11T08:13:55.490Z,4.70
2023-02-11T08:16:32.722Z,4.70
2023-02-11T08:19:06.242Z,4.70
2023-02-11T08:21:33.396Z,4.80
2023-02-11T08:24:03.392Z,4.80
2023-02-11T08:26:34.702Z,5.00
2023-02-11T08:29:06.375Z,5.00
2023-02-11T08:31:37.395Z,5.10
2023-02-11T08:34:04.598Z,5.20
2023-02-11T08:36:36.201Z,5.40
2023-02-11T08:39:18.640Z,5.50
2023-02-11T08:41:49.291Z,5.60
2023-02-11T08:44:18.058Z,5.80
2023-02-11T08:46:44.995Z,5.90
2023-02-11T08:49:12.064Z,6.00
2023-02-11T08:51:38.875Z,6.10
2023-02-11T08:54:09.451Z,6.20
2023-02-11T08:56:38.724Z,6.30
2023-02-11T08:59:06.452Z,6.30
2023-02-11T09:01:33.980Z,6.40
2023-02-11T09:04:01.107Z,6.40
2023-02-11T09:06:29.135Z,6.50
2023-02-11T09:08:58.264Z,6.50
2023-02-11T09:11:33.351Z,6.50
2023-02-11T09:14:01.961Z,6.50
2023-02-11T09:16:32.456Z,6.50
2023-02-11T09:19:01.767Z,6.60
2023-02-11T09:21:29.951Z,6.60
2023-02-11T09:23:57.307Z,6.60
2023-02-11T09:26:31.339Z,6.70
2023-02-11T09:28:59.329Z,6.70
2023-02-11T09:31:30.581Z,6.70
2023-02-11T09:34:02.688Z,6.70
2023-02-11T09:36:33.739Z,6.90
2023-02-11T09:39:02.834Z,6.80
2023-02-11T09:41:48.385Z,6.80
2023-02-11T09:44:27.522Z,6.90
2023-02-11T09:47:18.245Z,6.90
2023-02-11T09:49:51.714Z,7.00
2023-02-11T09:52:58.598Z,7.10
2023-02-11T09:55:43.121Z,7.10
2023-02-11T09:58:26.377Z,7.20
2023-02-11T10:01:12.997Z,7.20
2023-02-11T10:04:22.196Z,7.40
2023-02-11T10:07:15.449Z,7.50
2023-02-11T10:09:50.780Z,7.60
2023-02-11T10:12:38.974Z,7.80
2023-02-11T10:15:24.362Z,8.30
2023-02-11T10:18:52.894Z,9.00
2023-02-11T10:21:43.723Z,9.80
2023-02-11T10:24:14.125Z,10.40
2023-02-11T10:26:41.885Z,10.60
2023-02-11T10:29:38.371Z,10.70
2023-02-11T10:32:19.976Z,10.70
2023-02-11T10:34:47.704Z,10.70
2023-02-11T10:37:14.766Z,10.60
2023-02-11T10:39:42.260Z,10.40
2023-02-11T10:42:14.188Z,10.30
2023-02-11T10:45:06.246Z,10.20
2023-02-11T10:47:37.878Z,10.10
2023-02-11T10:50:29.659Z,10.00
2023-02-11T10:53:20.923Z,9.90
2023-02-11T10:55:54.984Z,10.00
2023-02-11T10:58:37.002Z,10.00
2023-02-11T11:01:12.964Z,10.30
2023-02-11T11:03:52.618Z,10.40
2023-02-11T11:06:34.600Z,10.70
2023-02-11T11:09:02.065Z,10.90
2023-02-11T11:11:28.987Z,11.10
2023-02-11T11:14:00.566Z,11.10
2023-02-11T11:16:35.231Z,11.20
2023-02-11T11:19:08.079Z,11.20
2023-02-11T11:21:43.091Z,11.20
2023-02-11T11:24:33.535Z,11.20
2023-02-11T11:27:04.180Z,11.10
2023-02-11T11:29:45.717Z,11.10
2023-02-11T11:32:28.740Z,11.10
2023-02-11T11:35:01.308Z,11.10
2023-02-11T11:37:32.208Z,11.10
2023-02-11T11:40:17.005Z,11.10
2023-02-11T11:42:44.080Z,11.20
2023-02-11T11:45:20.068Z,11.30
2023-02-11T11:48:00.505Z,11.30
2023-02-11T11:50:40.227Z,11.30
2023-02-11T11:53:41.101Z,11.40
2023-02-11T11:56:32.135Z,11.30
2023-02-11T11:59:02.285Z,11.30
2023-02-11T12:01:54.128Z,11.40
2023-02-11T12:05:29.362Z,11.40
2023-02-11T12:08:23.045Z,11.50
2023-02-11T12:11:33.854Z,11.50
2023-02-11T12:14:31.274Z,11.40
2023-02-11T12:17:16.062Z,11.40
2023-02-11T12:20:23.712Z,11.30
2023-02-11T12:23:30.127Z,11.30
2023-02-11T12:26:15.003Z,11.30
2023-02-11T12:28:50.693Z,11.30
2023-02-11T12:31:49.698Z,11.30
2023-02-11T12:34:49.681Z,11.30
2023-02-11T12:37:42.704Z,11.40
2023-02-11T12:40:18.314Z,11.40
2023-02-11T12:43:16.597Z,11.40
2023-02-11T12:46:31.373Z,11.50
2023-02-11T12:49:35.536Z,11.50
2023-02-11T12:52:43.248Z,11.50
2023-02-11T12:55:22.094Z,11.50
2023-02-11T12:57:52.050Z,11.50
2023-02-11T13:01:01.326Z,11.50
2023-02-11T13:03:41.662Z,11.50
2023-02-11T13:06:17.780Z,11.70
2023-02-11T13:08:58.969Z,11.70
2023-02-11T13:11:40.234Z,11.80
2023-02-11T13:14:17.101Z,11.80
2023-02-11T13:16:47.113Z,11.90
2023-02-11T13:19:13.980Z,11.90
2023-02-11T13:22:19.642Z,12.00
2023-02-11T13:25:25.455Z,11.90
2023-02-11T13:28:23.301Z,11.80
2023-02-11T13:31:01.771Z,11.80
2023-02-11T13:33:45.932Z,11.60
2023-02-11T13:36:17.613Z,11.50
2023-02-11T13:39:01.960Z,11.50
2023-02-11T13:41:41.300Z,11.50
2023-02-11T13:44:11.065Z,11.50
2023-02-11T13:47:04.907Z,11.60
2023-02-11T13:49:42.252Z,11.70
2023-02-11T13:52:39.182Z,11.80
2023-02-11T13:55:22.382Z,11.90
2023-02-11T13:58:07.422Z,11.90
2023-02-11T14:00:34.201Z,12.00
2023-02-11T14:03:31.798Z,12.10
2023-02-11T14:06:41.324Z,12.10
2023-02-11T14:09:14.197Z,12.20
2023-02-11T14:11:57.927Z,12.20
2023-02-11T14:14:28.414Z,12.20
2023-02-11T14:17:07.083Z,12.30
2023-02-11T14:19:41.233Z,12.30
2023-02-11T14:22:23.731Z,12.30
2023-02-11T14:25:00.721Z,12.20
2023-02-11T14:27:54.483Z,12.30
2023-02-11T14:30:50.371Z,12.20
2023-02-11T14:33:47.419Z,12.20
2023-02-11T14:36:36.817Z,12.20
2023-02-11T14:39:21.855Z,12.20
2023-02-11T14:41:51.133Z,12.20
2023-02-11T14:44:25.175Z,12.10
2023-02-11T14:46:54.530Z,12.10
2023-02-11T14:49:27.092Z,12.00
2023-02-11T14:52:19.552Z,11.90
2023-02-11T14:54:51.177Z,11.90
2023-02-11T14:57:20.670Z,11.80
2023-02-11T15:00:05.623Z,11.80
2023-02-11T15:02:38.590Z,11.80
2023-02-11T15:05:28.956Z,11.80
2023-02-11T15:08:01.729Z,11.80
2023-02-11T15:10:43.018Z,11.70
2023-02-11T15:13:22.482Z,11.80
2023-02-11T15:15:55.577Z,11.80
2023-02-11T15:18:29.763Z,11.80
2023-02-11T15:20:59.034Z,11.80
2023-02-11T15:23:29.879Z,11.70
2023-02-11T15:25:56.742Z,11.70
2023-02-11T15:28:31.358Z,11.70
2023-02-11T15:31:24.590Z,11.70
2023-02-11T15:33:52.702Z,11.60
2023-02-11T15:36:28.330Z,11.60
2023-02-11T15:39:41.254Z,11.60
2023-02-11T15:42:21.650Z,11.60
2023-02-11T15:45:08.392Z,11.70
2023-02-11T15:47:36.283Z,11.60
2023-02-11T15:50:03.672Z,11.60
2023-02-11T15:52:31.784Z,11.60
2023-02-11T15:55:02.392Z,11.60
2023-02-11T15:57:29.864Z,11.50
2023-02-11T15:59:58.697Z,11.50
2023-02-11T16:02:36.792Z,11.40
2023-02-11T16:05:08.745Z,11.40
2023-02-11T16:07:43.010Z,11.30
2023-02-11T16:10:33.327Z,11.20
2023-02-11T16:13:18.406Z,11.20
2023-02-11T16:15:50.836Z,11.10
2023-02-11T16:18:39.297Z,11.10
2023-02-11T16:21:16.532Z,11.00
2023-02-11T16:23:50.845Z,11.00
2023-02-11T16:26:43.095Z,10.90
2023-02-11T16:29:17.034Z,10.90
2023-02-11T16:31:48.657Z,10.90
2023-02-11T16:34:23.580Z,10.80
2023-02-11T16:36:52.043Z,10.70
2023-02-11T16:39:23.600Z,10.60
2023-02-11T16:41:52.074Z,10.70
2023-02-11T16:44:19.112Z,10.60
2023-02-11T16:46:46.234Z,10.50
2023-02-11T16:49:31.270Z,10.50
2023-02-11T16:52:02.372Z,10.40
2023-02-11T16:54:30.306Z,10.40
2023-02-11T16:56:58.050Z,10.40
2023-02-11T16:59:25.037Z,10.30
2023-02-11T17:01:54.759Z,10.30
2023-02-11T17:04:30.621Z,10.20
2023-02-11T17:06:58.696Z,10.20
2023-02-11T17:09:30.510Z,10.20
2023-02-11T17:11:57.898Z,10.10
2023-02-11T17:14:24.830Z,10.10
2023-02-11T17:16:52.039Z,10.00
2023-02-11T17:19:21.810Z,10.00
2023-02-11T17:21:52.488Z,9.90
2023-02-11T17:24:22.080Z,9.90
2023-02-11T17:26:49.625Z,9.80
2023-02-11T17:29:21.934Z,9.80
2023-02-11T17:31:49.784Z,9.70
2023-02-11T17:34:17.920Z,9.60
2023-02-11T17:36:45.078Z,9.60
2023-02-11T17:39:12.150Z,9.50
2023-02-11T17:41:40.456Z,9.50
2023-02-11T17:44:10.471Z,9.40
2023-02-11T17:46:37.287Z,9.40
2023-02-11T17:49:04.997Z,9.40
2023-02-11T17:51:38.475Z,9.30
2023-02-11T17:54:16.830Z,9.30
2023-02-11T17:56:45.073Z,9.30
2023-02-11T17:59:13.562Z,9.30
2023-02-11T18:01:42.775Z,9.20
2023-02-11T18:04:18.350Z,9.20
2023-02-11T18:06:45.954Z,9.20
2023-02-11T18:09:13.095Z,9.20
2023-02-11T18:11:40.869Z,9.20
2023-02-11T18:14:09.076Z,9.20
2023-02-11T18:16:38.994Z,9.20
2023-02-11T18:19:07.553Z,9.10
2023-02-11T18:21:34.877Z,9.10
2023-02-11T18:24:06.532Z,9.10
2023-02-11T18:26:35.033Z,9.10
2023-02-11T18:29:03.795Z,9.10
2023-02-11T18:31:30.989Z,9.00
2023-02-11T18:33:58.121Z,9.10
2023-02-11T18:36:25.044Z,9.10
2023-02-11T18:38:53.662Z,9.00
2023-02-11T18:41:21.516Z,9.00
2023-02-11T18:43:48.575Z,8.90
2023-02-11T18:46:16.754Z,8.90
2023-02-11T18:48:45.249Z,8.90
2023-02-11T18:51:21.067Z,8.90
2023-02-11T18:53:48.037Z,8.80
2023-02-11T18:56:20.663Z,8.80
2023-02-11T18:58:48.893Z,8.70
2023-02-11T19:01:24.538Z,8.70
2023-02-11T19:03:52.695Z,8.60
2023-02-11T19:06:25.406Z,8.50
2023-02-11T19:08:56.905Z,8.50
2023-02-11T19:11:45.449Z,8.40
2023-02-11T19:14:13.993Z,8.40
2023-02-11T19:16:44.009Z,8.30
2023-02-11T19:19:11.021Z,8.30
2023-02-11T19:21:38.093Z,8.20
2023-02-11T19:24:09.491Z,8.20
2023-02-11T19:26:37.271Z,8.10
2023-02-11T19:29:05.958Z,8.10
2023-02-11T19:31:33.271Z,8.10
2023-02-11T19:34:02.260Z,8.00
2023-02-11T19:36:30.075Z,8.00
2023-02-11T19:39:00.973Z,8.00
2023-02-11T19:41:29.459Z,7.90
2023-02-11T19:43:56.815Z,7.90
2023-02-11T19:46:26.167Z,7.90
2023-02-11T19:48:54.715Z,7.90
2023-02-11T19:51:22.676Z,7.80
2023-02-11T19:53:51.176Z,7.90
2023-02-11T19:56:20.736Z,7.80
2023-02-11T19:58:48.251Z,7.90
2023-02-11T20:01:29.116Z,7.80
2023-02-11T20:03:57.463Z,7.80
2023-02-11T20:06:28.568Z,7.80
2023-02-11T20:09:01.138Z,7.70
2023-02-11T20:11:31.004Z,7.70
2023-02-11T20:13:58.626Z,7.70
2023-02-11T20:16:45.116Z,7.70
2023-02-11T20:19:18.370Z,7.60
2023-02-11T20:21:48.223Z,7.70
2023-02-11T20:24:17.950Z,7.70
2023-02-11T20:26:48.057Z,7.70
2023-02-11T20:29:16.954Z,7.70
2023-02-11T20:31:44.420Z,7.80
2023-02-11T20:34:12.484Z,7.80
2023-02-11T20:36:40.647Z,7.80
2023-02-11T20:39:08.188Z,7.80
2023-02-11T20:41:39.870Z,7.80
2023-02-11T20:44:10.455Z,7.90
2023-02-11T20:46:41.414Z,7.90
2023-02-11T20:49:15.756Z,7.90
2023-02-11T20:51:43.429Z,7.90
2023-02-11T20:54:19.623Z,7.90
2023-02-11T20:56:48.564Z,7.90
2023-02-11T20:59:17.550Z,7.90
2023-02-11T21:01:53.567Z,7.90
2023-02-11T21:04:28.125Z,7.90
2023-02-11T21:06:59.777Z,7.90
2023-02-11T21:09:31.540Z,7.90
2023-02-11T21:11:59.408Z,8.00
2023-02-11T21:14:29.589Z,8.10
2023-02-11T21:16:57.498Z,8.00
2023-02-11T21:19:24.898Z,8.00
2023-02-11T21:21:51.909Z,8.10
2023-02-11T21:24:18.903Z,8.10
2023-02-11T21:26:45.750Z,8.10
2023-02-11T21:29:12.633Z,8.10
2023-02-11T21:31:40.378Z,8.10
2023-02-11T21:34:07.690Z,8.10
2023-02-11T21:36:34.660Z,8.10
2023-02-11T21:39:03.752Z,8.20
2023-02-11T21:41:30.682Z,8.20
2023-02-11T21:43:57.737Z,8.20
2023-02-11T21:46:24.979Z,8.20
2023-02-11T21:48:52.246Z,8.20
2023-02-11T21:51:23.373Z,8.20
2023-02-11T21:53:57.118Z,8.20
2023-02-11T21:56:26.307Z,8.20
2023-02-11T21:58:55.968Z,8.20
2023-02-11T22:01:30.174Z,8.20
2023-02-11T22:03:59.170Z,8.20
2023-02-11T22:06:33.111Z,8.20
2023-02-11T22:09:07.241Z,8.20
2023-02-11T22:11:34.569Z,8.20
2023-02-11T22:14:01.989Z,8.30
2023-02-11T22:16:29.995Z,8.30
2023-02-11T22:18:58.680Z,8.30
2023-02-11T22:21:26.366Z,8.30
2023-02-11T22:23:55.620Z,8.30
2023-02-11T22:26:25.783Z,8.30
2023-02-11T22:28:53.642Z,8.20
2023-02-11T22:31:24.592Z,8.30
2023-02-11T22:33:51.977Z,8.30
2023-02-11T22:36:23.745Z,8.30
2023-02-11T22:38:51.308Z,8.30
2023-02-11T22:41:19.788Z,8.30
2023-02-11T22:43:47.102Z,8.30
2023-02-11T22:46:17.412Z,8.30
2023-02-11T22:48:44.871Z,8.30
2023-02-11T22:51:24.337Z,8.40
2023-02-11T22:53:56.708Z,8.40
2023-02-11T22:56:24.921Z,8.40
2023-02-11T22:58:53.629Z,8.40
2023-02-11T23:01:20.758Z,8.40
2023-02-11T23:03:47.620Z,8.40
2023-02-11T23:06:15.115Z,8.40
2023-02-11T23:08:45.427Z,8.50
2023-02-11T23:11:19.244Z,8.40
2023-02-11T23:13:49.091Z,8.50
2023-02-11T23:16:30.740Z,8.50
2023-02-11T23:19:02.031Z,8.50
2023-02-11T23:21:33.445Z,8.50
2023-02-11T23:24:05.134Z,8.50
2023-02-11T23:26:32.301Z,8.50
2023-02-11T23:29:00.335Z,8.50
2023-02-11T23:31:34.506Z,8.50
2023-02-11T23:34:01.565Z,8.50
2023-02-11T23:36:29.084Z,8.50
2023-02-11T23:38:56.206Z,8.50
2023-02-11T23:41:23.890Z,8.50
2023-02-11T23:43:56.650Z,8.50
2023-02-11T23:46:27.913Z,8.50
2023-02-11T23:48:55.439Z,8.50
2023-02-11T23:51:23.751Z,8.50
2023-02-11T23:53:54.070Z,8.50
2023-02-11T23:56:26.865Z,8.50
2023-02-11T23:58:57.168Z,8.50
